Time;durP1;ratioP1;P1;durP2;ratioP2;P2;SDS_P1;SDS_P2;PMS_P1;PMS_P2;Temp;Humidity;BMP_temperature;BMP_pressure;BME280_temperature;BME280_humidity;BME280_pressure;Samples;Min_cycle;Max_cycle;Signal;HPM_P1;HPM_P2
2022/04/20 00:01:48;;;;;;;;;;;6.90;99.90;;;;;;5110636;28;19911;-77
2022/04/20 00:04:17;;;;;;;;;;;6.90;99.90;;;;;;5104898;28;19994;-77
2022/04/20 00:06:42;;;;;;;;;;;6.80;99.90;;;;;;5073159;28;19904;-77
2022/04/20 00:09:08;;;;;;;;;;;6.70;99.90;;;;;;5094341;28;19927;-77
2022/04/20 00:11:34;;;;;;;;;;;;;;;;;;5098526;28;19908;-78
2022/04/20 00:14:11;;;;;;;;;;;6.70;99.90;;;;;;5114533;28;19914;-78
2022/04/20 00:16:41;;;;;;;;;;;6.60;99.90;;;;;;5100713;28;19911;-78
2022/04/20 00:19:07;;;;;;;;;;;;;;;;;;5101237;28;19904;-78
2022/04/20 00:21:41;;;;;;;;;;;6.60;99.90;;;;;;5107525;28;19973;-78
2022/04/20 00:24:17;;;;;;;;;;;6.50;99.90;;;;;;5075885;28;19904;-78
2022/04/20 00:26:42;;;;;;;;;;;6.50;99.90;;;;;;5103593;28;19903;-77
2022/04/20 00:29:17;;;;;;;;;;;6.40;99.90;;;;;;5112043;28;19926;-77
2022/04/20 00:31:53;;;;;;;;;;;6.40;99.90;;;;;;5104353;28;19911;-77
2022/04/20 00:34:18;;;;;;;;;;;6.40;99.90;;;;;;5083508;28;19904;-77
2022/04/20 00:37:05;;;;;;;;;;;6.40;99.90;;;;;;5102448;28;19904;-77
2022/04/20 00:39:30;;;;;;;;;;;6.30;99.90;;;;;;5093960;28;19908;-77
2022/04/20 00:41:59;;;;;;;;;;;6.30;99.90;;;;;;5099930;28;19916;-77
2022/04/20 00:44:35;;;;;;;;;;;6.30;99.90;;;;;;5114065;28;19903;-77
2022/04/20 00:47:05;;;;;;;;;;;6.10;99.90;;;;;;5114435;28;19904;-77
2022/04/20 00:49:35;;;;;;;;;;;6.10;99.90;;;;;;5114062;28;19955;-77
2022/04/20 00:52:06;;;;;;;;;;;6.10;99.90;;;;;;5114187;28;19939;-77
2022/04/20 00:54:31;;;;;;;;;;;6.00;99.90;;;;;;5097698;28;19908;-77
2022/04/20 00:56:59;;;;;;;;;;;;;;;;;;5097760;28;19973;-78
2022/04/20 00:59:41;;;;;;;;;;;6.00;99.90;;;;;;5097295;28;19908;-78
2022/04/20 01:02:07;;;;;;;;;;;5.90;99.90;;;;;;5097540;28;19962;-78
2022/04/20 01:04:32;;;;;;;;;;;5.90;99.90;;;;;;5097140;28;20355;-78
2022/04/20 01:07:23;;;;;;;;;;;5.90;99.90;;;;;;5098054;28;19981;-78
2022/04/20 01:10:05;;;;;;;;;;;5.90;99.90;;;;;;5084614;28;19907;-78
2022/04/20 01:12:43;;;;;;;;;;;5.80;99.90;;;;;;5121614;27;19911;-78
2022/04/20 01:15:09;;;;;;;;;;;5.70;99.90;;;;;;5097100;28;20371;-78
2022/04/20 01:17:35;;;;;;;;;;;5.70;99.90;;;;;;5096936;28;19904;-78
2022/04/20 01:20:23;;;;;;;;;;;5.60;99.90;;;;;;5097181;28;19954;-78
2022/04/20 01:22:53;;;;;;;;;;;5.60;99.90;;;;;;5113670;28;19959;-78
2022/04/20 01:25:41;;;;;;;;;;;5.50;99.90;;;;;;5117262;28;19904;-78
2022/04/20 01:28:07;;;;;;;;;;;5.50;99.90;;;;;;5090147;28;20365;-78
2022/04/20 01:30:41;;;;;;;;;;;;;;;;;;5103873;28;19995;-78
2022/04/20 01:33:11;;;;;;;;;;;5.50;99.90;;;;;;5076592;28;19950;-78
2022/04/20 01:35:36;;;;;;;;;;;5.40;99.90;;;;;;5105339;28;19911;-78
2022/04/20 01:38:02;;;;;;;;;;;;;;;;;;5104524;28;19904;-78
2022/04/20 01:40:29;;;;;;;;;;;5.30;99.90;;;;;;5103274;28;19908;-78
2022/04/20 01:42:59;;;;;;;;;;;5.30;99.90;;;;;;5117089;28;19912;-78
2022/04/20 01:45:25;;;;;;;;;;;5.30;99.90;;;;;;5101441;28;19919;-78
2022/04/20 01:47:59;;;;;;;;;;;5.30;99.90;;;;;;5104509;28;19903;-78
2022/04/20 01:50:29;;;;;;;;;;;5.30;99.90;;;;;;5103315;28;19920;-78
2022/04/20 01:53:05;;;;;;;;;;;5.30;1.00;;;;;;5107273;28;19908;-78
2022/04/20 01:55:35;;;;;;;;;;;;;;;;;;5096158;28;19911;-78
2022/04/20 02:00:45;;;;;;;;;;;5.20;1.00;;;;;;5102431;28;20328;-78
2022/04/20 02:06:17;;;;;;;;;;;;;;;;;;5091159;28;19915;-78
2022/04/20 02:08:47;;;;;;;;;;;5.00;1.00;;;;;;5103542;28;19954;-78
2022/04/20 02:11:12;;;;;;;;;;;5.00;1.00;;;;;;5115076;28;19904;-78
2022/04/20 02:13:41;;;;;;;;;;;5.00;1.00;;;;;;5085893;28;19903;-78
2022/04/20 02:16:07;;;;;;;;;;;;;;;;;;5112393;28;19907;-78
2022/04/20 02:18:35;;;;;;;;;;;4.90;1.00;;;;;;5103946;28;20319;-78
2022/04/20 02:21:00;;;;;;;;;;;4.90;1.00;;;;;;5102135;28;19909;-78
2022/04/20 02:23:26;;;;;;;;;;;4.90;1.00;;;;;;5107859;28;19904;-78
2022/04/20 02:25:53;;;;;;;;;;;4.90;1.00;;;;;;5095536;28;19904;-78
2022/04/20 02:28:23;;;;;;;;;;;4.90;1.00;;;;;;5104536;28;20343;-78
2022/04/20 02:33:53;;;;;;;;;;;4.70;1.00;;;;;;5101717;28;19910;-78
2022/04/20 02:36:29;;;;;;;;;;;4.80;1.00;;;;;;5095344;28;19904;-78
2022/04/20 02:39:05;;;;;;;;;;;4.60;1.00;;;;;;5107901;28;19916;-78
2022/04/20 02:41:41;;;;;;;;;;;4.70;1.00;;;;;;5105470;28;19974;-78
2022/04/20 02:44:23;;;;;;;;;;;4.70;1.00;;;;;;5108830;28;19908;-78
2022/04/20 02:47:11;;;;;;;;;;;4.70;1.00;;;;;;5095269;28;19904;-78
2022/04/20 02:49:41;;;;;;;;;;;4.50;1.00;;;;;;5094143;28;20532;-78
2022/04/20 02:52:07;;;;;;;;;;;4.50;1.00;;;;;;5098468;28;20006;-78
2022/04/20 02:54:32;;;;;;;;;;;4.50;1.00;;;;;;5095163;28;19904;-78
2022/04/20 02:56:59;;;;;;;;;;;4.50;1.00;;;;;;5108261;28;19998;-78
2022/04/20 02:59:25;;;;;;;;;;;4.50;1.00;;;;;;5101680;28;19947;-78
2022/04/20 03:01:53;;;;;;;;;;;4.40;1.00;;;;;;5111673;28;19954;-78
2022/04/20 03:07:29;;;;;;;;;;;4.30;1.00;;;;;;5103196;28;19910;-78
2022/04/20 03:10:11;;;;;;;;;;;4.30;1.00;;;;;;5076581;28;19915;-78
2022/04/20 03:12:41;;;;;;;;;;;4.20;1.00;;;;;;5094819;28;19907;-78
2022/04/20 03:15:17;;;;;;;;;;;4.30;1.00;;;;;;5101148;28;19949;-78
2022/04/20 03:17:53;;;;;;;;;;;4.10;1.00;;;;;;5100884;28;19951;-78
2022/04/20 03:20:29;;;;;;;;;;;4.10;1.00;;;;;;5105380;28;19904;-78
2022/04/20 03:22:55;;;;;;;;;;;4.20;1.00;;;;;;5108421;28;20003;-78
2022/04/20 03:25:35;;;;;;;;;;;4.10;1.00;;;;;;5094683;28;19904;-78
2022/04/20 03:28:05;;;;;;;;;;;;;;;;;;5108742;28;19904;-78
2022/04/20 03:30:41;;;;;;;;;;;;;;;;;;5107567;28;20004;-78
2022/04/20 03:36:17;;;;;;;;;;;3.90;1.00;;;;;;5106783;28;20050;-78
2022/04/20 03:38:47;;;;;;;;;;;;;;;;;;5123575;27;20006;-78
2022/04/20 03:41:17;;;;;;;;;;;;;;;;;;5101317;28;19962;-78
2022/04/20 03:46:27;;;;;;;;;;;3.90;1.00;;;;;;5095905;28;20286;-78
2022/04/20 03:48:53;;;;;;;;;;;;;;;;;;5097655;28;19908;-78
2022/04/20 03:51:29;;;;;;;;;;;3.80;1.00;;;;;;5104145;28;19915;-78
2022/04/20 03:53:59;;;;;;;;;;;3.80;1.00;;;;;;5108000;28;19918;-78
2022/04/20 03:56:25;;;;;;;;;;;3.70;1.00;;;;;;5105931;28;20266;-78
2022/04/20 03:58:50;;;;;;;;;;;3.70;1.00;;;;;;5102668;28;19908;-78
2022/04/20 04:01:16;;;;;;;;;;;3.70;1.00;;;;;;5087544;28;19943;-78
2022/04/20 04:03:53;;;;;;;;;;;3.60;1.00;;;;;;5125197;28;19903;-78
2022/04/20 04:06:41;;;;;;;;;;;3.60;1.00;;;;;;5107399;28;19911;-78
2022/04/20 04:09:11;;;;;;;;;;;;;;;;;;5088453;28;20248;-79
2022/04/20 04:11:41;;;;;;;;;;;3.60;1.00;;;;;;5105942;28;19911;-78
2022/04/20 04:14:17;;;;;;;;;;;3.50;1.00;;;;;;5106216;28;19904;-78
2022/04/20 04:17:05;;;;;;;;;;;3.50;1.00;;;;;;5095517;28;19907;-79
2022/04/20 04:19:35;;;;;;;;;;;;;;;;;;5100542;28;19904;-79
2022/04/20 04:22:01;;;;;;;;;;;3.40;1.00;;;;;;5104256;28;20367;-79
2022/04/20 04:24:35;;;;;;;;;;;3.40;1.00;;;;;;5107592;28;19911;-78
2022/04/20 04:27:02;;;;;;;;;;;3.60;1.00;;;;;;5104957;28;19904;-79
2022/04/20 04:29:29;;;;;;;;;;;3.60;1.00;;;;;;5101762;28;19907;-79
2022/04/20 04:32:05;;;;;;;;;;;3.60;1.00;;;;;;5106596;28;19904;-79
2022/04/20 04:34:35;;;;;;;;;;;3.50;1.00;;;;;;5117777;28;19953;-79
2022/04/20 04:37:13;;;;;;;;;;;;;;;;;;5105661;28;19904;-80
2022/04/20 04:39:47;;;;;;;;;;;3.60;1.00;;;;;;5105445;28;19911;-80
2022/04/20 04:42:25;;;;;;;;;;;3.60;1.00;;;;;;5103949;28;19912;-80
2022/04/20 04:50:47;;;;;;;;;;;;;;;;;;5086484;28;20323;-79
2022/04/20 04:53:17;;;;;;;;;;;;;;;;;;5117997;28;19904;-81
2022/04/20 04:55:43;;;;;;;;;;;3.70;1.00;;;;;;5111662;28;19904;-80
2022/04/20 04:58:23;;;;;;;;;;;3.70;1.00;;;;;;5110611;28;20002;-80
2022/04/20 05:01:17;;;;;;;;;;;3.80;1.00;;;;;;5092864;28;19908;-80
2022/04/20 05:03:43;;;;;;;;;;;4.00;1.00;;;;;;5094198;28;19918;-80
2022/04/20 05:06:29;;;;;;;;;;;3.90;1.00;;;;;;5096552;28;19987;-80
2022/04/20 05:09:05;;;;;;;;;;;3.90;1.00;;;;;;5090077;28;19919;-80
2022/04/20 05:11:42;;;;;;;;;;;4.10;1.00;;;;;;5114390;28;19904;-80
2022/04/20 05:14:08;;;;;;;;;;;4.30;1.00;;;;;;5109329;28;19953;-72
2022/04/20 05:16:35;;;;;;;;;;;;;;;;;;5088602;28;20248;-72
2022/04/20 05:19:01;;;;;;;;;;;;;;;;;;5090856;28;19910;-72
2022/04/20 05:21:27;;;;;;;;;;;4.40;1.00;;;;;;5102472;28;19996;-72
2022/04/20 05:23:54;;;;;;;;;;;;;;;;;;5103915;28;19995;-72
2022/04/20 05:26:20;;;;;;;;;;;4.70;1.00;;;;;;5092811;28;19949;-72
2022/04/20 05:28:47;;;;;;;;;;;4.70;1.00;;;;;;5097068;28;19904;-77
2022/04/20 05:31:12;;;;;;;;;;;4.70;1.00;;;;;;5110683;28;19909;-77
2022/04/20 05:33:47;;;;;;;;;;;4.90;1.00;;;;;;5096896;28;19965;-77
2022/04/20 05:36:13;;;;;;;;;;;4.90;1.00;;;;;;5113227;28;20328;-78
2022/04/20 05:44:09;;;;;;;;;;;5.30;1.00;;;;;;5106820;28;20011;-78
2022/04/20 05:46:35;;;;;;;;;;;;;;;;;;5106191;28;19914;-78
2022/04/20 05:49:01;;;;;;;;;;;;;;;;;;5109784;28;19908;-78
2022/04/20 05:51:35;;;;;;;;;;;5.70;1.00;;;;;;5107705;28;19904;-78
2022/04/20 05:54:01;;;;;;;;;;;5.80;1.00;;;;;;5111628;28;19907;-78
2022/04/20 05:56:27;;;;;;;;;;;6.00;1.00;;;;;;5095975;28;20274;-72
2022/04/20 05:58:53;;;;;;;;;;;;;;;;;;5095962;28;19908;-72
2022/04/20 06:01:22;;;;;;;;;;;6.40;1.00;;;;;;5100846;28;19912;-72
2022/04/20 06:03:48;;;;;;;;;;;6.40;1.00;;;;;;5099871;28;19915;-75
2022/04/20 06:06:14;;;;;;;;;;;6.60;99.90;;;;;;5094683;28;19907;-72
2022/04/20 06:08:40;;;;;;;;;;;6.70;1.00;;;;;;5080543;28;19908;-72
2022/04/20 06:11:05;;;;;;;;;;;6.80;1.00;;;;;;5087584;28;19904;-72
2022/04/20 06:13:32;;;;;;;;;;;;;;;;;;5095018;28;19914;-73
2022/04/20 06:15:59;;;;;;;;;;;7.10;1.00;;;;;;5102705;28;19914;-71
2022/04/20 06:18:25;;;;;;;;;;;;;;;;;;5112418;28;19990;-70
2022/04/20 06:20:51;;;;;;;;;;;;;;;;;;5106731;28;19911;-71
2022/04/20 06:23:20;;;;;;;;;;;;;;;;;;5102492;28;20321;-71
2022/04/20 06:25:46;;;;;;;;;;;;;;;;;;5115916;28;20359;-70
2022/04/20 06:28:12;;;;;;;;;;;7.70;99.90;;;;;;5115859;28;19906;-71
2022/04/20 06:30:41;;;;;;;;;;;7.50;99.90;;;;;;5108822;28;19949;-78
2022/04/20 06:33:23;;;;;;;;;;;7.80;99.90;;;;;;5103440;28;19964;-78
2022/04/20 06:35:49;;;;;;;;;;;8.00;99.90;;;;;;5105601;28;19954;-78
2022/04/20 06:38:15;;;;;;;;;;;8.00;99.90;;;;;;5095324;28;19908;-78
2022/04/20 06:40:47;;;;;;;;;;;8.20;99.90;;;;;;5099028;28;19908;-79
2022/04/20 06:43:17;;;;;;;;;;;8.20;99.90;;;;;;5104049;28;20355;-79
2022/04/20 06:45:44;;;;;;;;;;;8.30;99.90;;;;;;5109094;28;19912;-79
2022/04/20 06:48:10;;;;;;;;;;;8.60;99.90;;;;;;5107615;28;19908;-79
2022/04/20 06:50:47;;;;;;;;;;;;;;;;;;5109828;28;19912;-79
2022/04/20 06:59:00;;;;;;;;;;;9.10;99.90;;;;;;5084320;28;20382;-71
2022/04/20 07:01:26;;;;;;;;;;;;;;;;;;5093681;28;19912;-70
2022/04/20 07:03:52;;;;;;;;;;;9.30;99.90;;;;;;5099420;28;19914;-71
2022/04/20 07:06:18;;;;;;;;;;;;;;;;;;5102147;28;19911;-70
2022/04/20 07:08:53;;;;;;;;;;;9.60;99.90;;;;;;5076790;28;19935;-81
2022/04/20 07:11:29;;;;;;;;;;;;;;;;;;5107505;28;19907;-81
2022/04/20 07:14:05;;;;;;;;;;;;;;;;;;5094834;28;19908;-81
2022/04/20 07:16:31;;;;;;;;;;;;;;;;;;5094348;28;19912;-71
2022/04/20 07:18:57;;;;;;;;;;;9.80;99.90;;;;;;5094054;28;19915;-71
2022/04/20 07:21:23;;;;;;;;;;;;;;;;;;5103292;28;19911;-71
2022/04/20 07:23:49;;;;;;;;;;;;;;;;;;5101841;28;20027;-71
2022/04/20 07:26:15;;;;;;;;;;;10.20;99.90;;;;;;5099880;28;19912;-71
2022/04/20 07:28:40;;;;;;;;;;;10.30;99.90;;;;;;5091598;28;19958;-71
2022/04/20 07:31:06;;;;;;;;;;;10.30;99.90;;;;;;5094690;28;19911;-79
2022/04/20 07:33:41;;;;;;;;;;;10.40;99.90;;;;;;5094401;28;19904;-79
2022/04/20 07:36:11;;;;;;;;;;;10.60;99.90;;;;;;5095428;28;19957;-79
2022/04/20 07:38:42;;;;;;;;;;;10.70;99.90;;;;;;5108982;28;19919;-79
2022/04/20 07:41:17;;;;;;;;;;;10.80;99.90;;;;;;5107872;28;20010;-80
2022/04/20 07:43:43;;;;;;;;;;;11.00;99.90;;;;;;5092138;28;20355;-80
2022/04/20 07:51:59;;;;;;;;;;;;;;;;;;5096694;28;19961;-79
2022/04/20 07:54:25;;;;;;;;;;;;;;;;;;5114337;28;19953;-79
2022/04/20 07:56:51;;;;;;;;;;;11.50;99.90;;;;;;5100717;28;19908;-79
2022/04/20 07:59:35;;;;;;;;;;;11.60;99.90;;;;;;5106260;28;19903;-80
2022/04/20 08:02:00;;;;;;;;;;;11.70;99.90;;;;;;5092181;28;19962;-77
2022/04/20 08:04:26;;;;;;;;;;;11.90;99.90;;;;;;5093482;28;19908;-77
2022/04/20 08:06:52;;;;;;;;;;;12.00;99.90;;;;;;5101482;28;19915;-77
2022/04/20 08:09:19;;;;;;;;;;;12.10;99.90;;;;;;5114079;28;20002;-77
2022/04/20 08:11:47;;;;;;;;;;;;;;;;;;5105616;28;19908;-77
2022/04/20 08:17:35;;;;;;;;;;;;;;;;;;5092511;28;19915;-77
2022/04/20 08:20:06;;;;;;;;;;;12.50;99.90;;;;;;5073783;28;19985;-77
2022/04/20 08:22:32;;;;;;;;;;;;;;;;;;5087045;28;20006;-78
2022/04/20 08:25:02;;;;;;;;;;;;;;;;;;5103831;28;19908;-77
2022/04/20 08:27:35;;;;;;;;;;;;;;;;;;5078540;28;19910;-77
2022/04/20 08:33:07;;;;;;;;;;;;;;;;;;5090342;28;19923;-75
2022/04/20 08:35:33;;;;;;;;;;;12.90;99.90;;;;;;5095036;28;19916;-75
2022/04/20 08:37:59;;;;;;;;;;;13.00;99.90;;;;;;5093723;28;19908;-74
2022/04/20 08:40:25;;;;;;;;;;;13.20;99.90;;;;;;5093077;28;19919;-75
2022/04/20 08:42:52;;;;;;;;;;;;;;;;;;5093491;28;20262;-74
2022/04/20 08:45:19;;;;;;;;;;;13.30;99.90;;;;;;5078723;28;19908;-75
2022/04/20 08:47:46;;;;;;;;;;;13.40;99.90;;;;;;5098144;28;19915;-75
2022/04/20 08:50:12;;;;;;;;;;;;;;;;;;5105327;28;19911;-75
2022/04/20 08:52:50;;;;;;;;;;;13.50;99.90;;;;;;5095218;28;20259;-79
2022/04/20 08:55:16;;;;;;;;;;;;;;;;;;5093829;28;19904;-75
2022/04/20 08:57:43;;;;;;;;;;;;;;;;;;5106705;28;19950;-75
2022/04/20 09:00:26;;;;;;;;;;;13.80;99.90;;;;;;5092692;28;19915;-75
2022/04/20 09:02:56;;;;;;;;;;;;;;;;;;5093335;28;19912;-75
2022/04/20 09:05:22;;;;;;;;;;;;;;;;;;5092808;28;19931;-75
2022/04/20 09:07:47;;;;;;;;;;;14.00;99.90;;;;;;5092827;28;20346;-75
2022/04/20 09:10:13;;;;;;;;;;;;;;;;;;5084257;28;19957;-75
2022/04/20 09:12:40;;;;;;;;;;;13.90;99.90;;;;;;5098697;28;19950;-75
2022/04/20 09:15:06;;;;;;;;;;;;;;;;;;5095992;28;20000;-75
2022/04/20 09:17:37;;;;;;;;;;;;;;;;;;5075727;28;19939;-75
2022/04/20 09:20:03;;;;;;;;;;;;;;;;;;5106410;28;19907;-75
2022/04/20 09:22:32;;;;;;;;;;;14.10;99.90;;;;;;5097423;28;19951;-76
2022/04/20 09:24:58;;;;;;;;;;;14.30;99.90;;;;;;5096047;28;20374;-75
2022/04/20 09:27:27;;;;;;;;;;;14.30;99.90;;;;;;5091345;28;19907;-75
2022/04/20 09:29:54;;;;;;;;;;;;;;;;;;5096775;28;20312;-75
2022/04/20 09:32:20;;;;;;;;;;;;;;;;;;5107018;28;20259;-70
2022/04/20 09:34:56;;;;;;;;;;;;;;;;;;5104936;28;20025;-70
2022/04/20 09:37:22;;;;;;;;;;;14.60;99.90;;;;;;5106365;28;19915;-69
2022/04/20 09:39:48;;;;;;;;;;;;;;;;;;5102293;28;19912;-70
2022/04/20 09:42:14;;;;;;;;;;;14.80;99.90;;;;;;5096015;28;19919;-69
2022/04/20 09:44:51;;;;;;;;;;;14.90;99.90;;;;;;5112664;28;19969;-70
2022/04/20 09:50:04;;;;;;;;;;;;;;;;;;5083128;28;20316;-75
2022/04/20 09:52:41;;;;;;;;;;;15.10;99.90;;;;;;5094631;28;19908;-75
2022/04/20 09:55:07;;;;;;;;;;;;;;;;;;5094950;28;20046;-75
2022/04/20 09:57:34;;;;;;;;;;;14.90;99.90;;;;;;5103430;28;19988;-75
2022/04/20 10:00:00;;;;;;;;;;;15.00;99.90;;;;;;5094341;28;19908;-75
2022/04/20 10:02:28;;;;;;;;;;;;;;;;;;5096976;28;19922;-69
2022/04/20 10:04:55;;;;;;;;;;;15.10;99.90;;;;;;5110934;28;20263;-69
2022/04/20 10:07:20;;;;;;;;;;;15.00;99.90;;;;;;5100197;28;20256;-69
2022/04/20 10:09:46;;;;;;;;;;;;;;;;;;5106542;28;19991;-69
2022/04/20 10:12:13;;;;;;;;;;;15.10;99.90;;;;;;5070783;28;19908;-69
2022/04/20 10:17:25;;;;;;;;;;;;;;;;;;5101657;28;19935;-69
2022/04/20 10:19:51;;;;;;;;;;;15.20;99.90;;;;;;5093897;28;20360;-69
2022/04/20 10:22:21;;;;;;;;;;;15.30;99.90;;;;;;5087786;28;19907;-69
2022/04/20 10:24:49;;;;;;;;;;;15.40;99.90;;;;;;5096848;28;19931;-69
2022/04/20 10:27:18;;;;;;;;;;;15.40;99.90;;;;;;5098327;28;19918;-69
2022/04/20 10:29:47;;;;;;;;;;;15.50;99.90;;;;;;5097572;28;20361;-69
2022/04/20 10:32:15;;;;;;;;;;;;;;;;;;5087470;28;19911;-69
2022/04/20 10:34:41;;;;;;;;;;;;;;;;;;5097817;28;19908;-70
2022/04/20 10:37:15;;;;;;;;;;;15.70;99.90;;;;;;5098291;28;19904;-69
2022/04/20 10:39:41;;;;;;;;;;;15.80;99.90;;;;;;5090335;28;19948;-69
2022/04/20 10:42:11;;;;;;;;;;;15.70;99.90;;;;;;5095029;28;20028;-69
2022/04/20 10:44:36;;;;;;;;;;;;;;;;;;5099398;28;19915;-69
2022/04/20 10:47:03;;;;;;;;;;;15.70;99.90;;;;;;5096526;28;19912;-75
2022/04/20 10:49:38;;;;;;;;;;;16.00;99.90;;;;;;5093758;28;20370;-75
2022/04/20 10:52:21;;;;;;;;;;;16.10;99.90;;;;;;5097255;28;19912;-75
2022/04/20 10:54:47;;;;;;;;;;;;;;;;;;5098333;28;19998;-75
2022/04/20 10:57:13;;;;;;;;;;;;;;;;;;5108398;28;19908;-75
2022/04/20 10:59:42;;;;;;;;;;;;;;;;;;5109274;28;19908;-82
2022/04/20 11:02:08;;;;;;;;;;;;;;;;;;5087038;28;20326;-77
2022/04/20 11:04:44;;;;;;;;;;;16.20;99.90;;;;;;5105469;28;19908;-77
2022/04/20 11:07:10;;;;;;;;;;;16.40;99.90;;;;;;5099638;28;19962;-77
2022/04/20 11:09:45;;;;;;;;;;;16.50;99.90;;;;;;5103076;28;19940;-77
2022/04/20 11:20:43;;;;;;;;;;;;;;;;;;5092461;28;19915;-84
2022/04/20 11:23:11;;;;;;;;;;;16.80;99.90;;;;;;5103937;28;19990;-84
2022/04/20 11:25:41;;;;;;;;;;;17.00;99.90;;;;;;5104567;28;19915;-84
2022/04/20 11:28:07;;;;;;;;;;;;;;;;;;5100507;28;19910;-84
2022/04/20 11:30:33;;;;;;;;;;;;;;;;;;5102739;28;19904;-84
2022/04/20 11:32:59;;;;;;;;;;;;;;;;;;5098315;28;19908;-84
2022/04/20 11:35:25;;;;;;;;;;;;;;;;;;5073775;28;20394;-84
2022/04/20 11:37:56;;;;;;;;;;;17.40;99.90;;;;;;5099961;28;20015;-84
2022/04/20 11:40:22;;;;;;;;;;;17.50;99.90;;;;;;5107236;28;19995;-76
2022/04/20 11:43:03;;;;;;;;;;;17.60;99.90;;;;;;5102369;28;20014;-76
2022/04/20 11:45:32;;;;;;;;;;;17.70;99.90;;;;;;5096085;28;20397;-76
2022/04/20 11:48:00;;;;;;;;;;;;;;;;;;5094811;28;19912;-69
2022/04/20 11:50:26;;;;;;;;;;;;;;;;;;5099014;28;19911;-73
2022/04/20 11:52:52;;;;;;;;;;;;;;;;;;5095423;28;19923;-85
2022/04/20 11:55:18;;;;;;;;;;;;;;;;;;5116345;27;19912;-85
2022/04/20 11:57:44;;;;;;;;;;;;;;;;;;5103187;28;19908;-85
2022/04/20 12:00:11;;;;;;;;;;;17.70;99.90;;;;;;5094584;28;19908;-86
2022/04/20 12:02:37;;;;;;;;;;;;;;;;;;5093211;28;19912;-85
2022/04/20 12:05:03;;;;;;;;;;;;;;;;;;5104787;28;19961;-85
2022/04/20 12:07:32;;;;;;;;;;;17.90;99.90;;;;;;5102750;28;20343;-86
2022/04/20 12:09:57;;;;;;;;;;;17.70;99.90;;;;;;5096198;28;19915;-86
2022/04/20 12:12:23;;;;;;;;;;;;;;;;;;5077770;28;19904;-86
2022/04/20 12:15:03;;;;;;;;;;;17.80;99.90;;;;;;5095722;28;20451;-86
2022/04/20 12:17:29;;;;;;;;;;;17.90;99.90;;;;;;5094116;28;19915;-86
2022/04/20 12:19:59;;;;;;;;;;;;;;;;;;5105966;28;19916;-85
2022/04/20 12:22:25;;;;;;;;;;;;;;;;;;5095802;28;20381;-86
2022/04/20 12:24:51;;;;;;;;;;;;;;;;;;5087707;28;19915;-84
2022/04/20 12:27:24;;;;;;;;;;;18.50;99.90;;;;;;5099718;28;20355;-82
2022/04/20 12:29:54;;;;;;;;;;;18.50;99.90;;;;;;5085526;28;19908;-85
2022/04/20 12:32:20;;;;;;;;;;;;;;;;;;5109791;28;19911;-70
2022/04/20 12:34:46;;;;;;;;;;;;;;;;;;5102455;28;20262;-70
2022/04/20 12:37:15;;;;;;;;;;;18.40;99.90;;;;;;5103763;28;19908;-70
2022/04/20 12:39:42;;;;;;;;;;;18.40;99.90;;;;;;5092339;28;19912;-70
2022/04/20 12:42:09;;;;;;;;;;;;;;;;;;5096180;28;19959;-70
2022/04/20 12:44:37;;;;;;;;;;;18.60;99.90;;;;;;5094926;28;19912;-70
2022/04/20 12:47:04;;;;;;;;;;;;;;;;;;5071339;28;19904;-70
2022/04/20 12:49:30;;;;;;;;;;;;;;;;;;5088585;28;20003;-70
2022/04/20 12:51:56;;;;;;;;;;;;;;;;;;5095883;28;19994;-70
2022/04/20 12:54:22;;;;;;;;;;;;;;;;;;5106066;28;19904;-70
2022/04/20 13:02:16;;;;;;;;;;;18.80;99.90;;;;;;5106090;28;19973;-75
2022/04/20 13:04:48;;;;;;;;;;;19.00;99.90;;;;;;5095821;28;19911;-76
2022/04/20 13:07:14;;;;;;;;;;;19.00;99.90;;;;;;5105008;28;20278;-76
2022/04/20 13:09:40;;;;;;;;;;;19.20;99.90;;;;;;5111455;28;19999;-76
2022/04/20 13:12:05;;;;;;;;;;;19.30;99.90;;;;;;5106053;28;20016;-76
2022/04/20 13:14:31;;;;;;;;;;;;;;;;;;5111714;28;20355;-77
2022/04/20 13:16:57;;;;;;;;;;;19.40;99.90;;;;;;5116611;28;19911;-77
2022/04/20 13:19:23;;;;;;;;;;;;;;;;;;5116852;28;19910;-77
2022/04/20 13:21:48;;;;;;;;;;;19.60;99.90;;;;;;5102314;28;19912;-77
2022/04/20 13:27:54;;;;;;;;;;;19.60;99.90;;;;;;5100125;28;20279;-77
2022/04/20 13:29:49;;;;;;;;;;;19.60;99.90;;;;;;5116668;28;19910;-77
2022/04/20 13:32:15;;;;;;;;;;;;;;;;;;5097290;28;20358;-76
2022/04/20 13:34:41;;;;;;;;;;;;;;;;;;5102879;28;19904;-71
2022/04/20 13:37:07;;;;;;;;;;;;;;;;;;5094465;28;20379;-71
2022/04/20 13:39:33;;;;;;;;;;;;;;;;;;5104414;28;19919;-70
2022/04/20 13:41:59;;;;;;;;;;;19.90;99.90;;;;;;5099599;28;19912;-71
2022/04/20 13:44:25;;;;;;;;;;;;;;;;;;5102689;28;19911;-71
2022/04/20 13:46:50;;;;;;;;;;;19.70;99.90;;;;;;5105059;28;19912;-70
2022/04/20 13:49:16;;;;;;;;;;;;;;;;;;5077209;28;19908;-70
2022/04/20 13:51:42;;;;;;;;;;;19.80;99.90;;;;;;5087911;28;19908;-71
2022/04/20 13:54:08;;;;;;;;;;;;;;;;;;5096144;28;19910;-71
2022/04/20 13:56:34;;;;;;;;;;;19.70;99.90;;;;;;5080470;28;19904;-75
2022/04/20 13:59:00;;;;;;;;;;;19.70;99.90;;;;;;5106294;28;19911;-75
2022/04/20 14:01:27;;;;;;;;;;;;;;;;;;5079089;28;20338;-75
2022/04/20 14:03:52;;;;;;;;;;;19.80;99.90;;;;;;5104732;28;19908;-84
2022/04/20 14:06:18;;;;;;;;;;;;;;;;;;5105143;28;19934;-83
2022/04/20 14:08:43;;;;;;;;;;;19.80;99.90;;;;;;5095115;28;20436;-84
2022/04/20 14:11:09;;;;;;;;;;;19.80;99.90;;;;;;5076581;28;19911;-84
2022/04/20 14:13:34;;;;;;;;;;;19.90;99.90;;;;;;5095008;28;20369;-84
2022/04/20 14:16:01;;;;;;;;;;;19.70;99.90;;;;;;5103404;28;19907;-84
2022/04/20 14:18:26;;;;;;;;;;;;;;;;;;5108544;28;19908;-82
2022/04/20 14:20:52;;;;;;;;;;;19.50;99.90;;;;;;5112792;28;20311;-87
2022/04/20 14:23:18;;;;;;;;;;;;;;;;;;5108126;28;19912;-91
2022/04/20 14:33:59;;;;;;;;;;;;;;;;;;5112040;28;19957;-87
2022/04/20 14:36:25;;;;;;;;;;;19.80;99.90;;;;;;5088859;28;19914;-83
2022/04/20 14:38:50;;;;;;;;;;;19.80;99.90;;;;;;5097101;28;19912;-85
2022/04/20 14:41:16;;;;;;;;;;;;;;;;;;5090115;28;19912;-83
2022/04/20 14:43:42;;;;;;;;;;;20.40;99.90;;;;;;5088337;28;19945;-83
2022/04/20 14:46:07;;;;;;;;;;;21.20;99.90;;;;;;5106889;28;19969;-85
2022/04/20 14:48:33;;;;;;;;;;;;;;;;;;5094236;28;19962;-93
2022/04/20 14:50:59;;;;;;;;;;;22.10;99.90;;;;;;5086492;28;19912;-89
2022/04/20 14:53:25;;;;;;;;;;;22.00;99.90;;;;;;5082729;28;19908;-92
2022/04/20 14:56:05;;;;;;;;;;;;;;;;;;5086560;28;20256;-90
2022/04/20 14:58:43;;;;;;;;;;;23.20;99.90;;;;;;5078640;28;19904;-96
2022/04/20 15:03:44;;;;;;;;;;;25.00;99.90;;;;;;5056099;22;19944;-84
2022/04/20 15:06:10;;;;;;;;;;;25.70;99.90;;;;;;5018756;28;20365;-84
2022/04/20 15:08:36;;;;;;;;;;;26.70;99.90;;;;;;5023497;28;20423;-87
2022/04/20 15:11:01;;;;;;;;;;;;;;;;;;5015652;28;19932;-85
2022/04/20 15:13:27;;;;;;;;;;;28.20;99.90;;;;;;5032035;28;19909;-85
2022/04/20 15:15:53;;;;;;;;;;;;;;;;;;5024725;28;19909;-85
2022/04/20 15:18:18;;;;;;;;;;;29.90;99.90;;;;;;5018223;28;19913;-85
2022/04/20 15:20:44;;;;;;;;;;;30.80;99.90;;;;;;5034875;28;20264;-86
2022/04/20 15:23:10;;;;;;;;;;;31.30;99.90;;;;;;5020801;28;19913;-85
2022/04/20 15:28:42;;;;;;;;;;;32.10;99.90;;;;;;5022239;28;20347;-84
2022/04/20 15:31:08;;;;;;;;;;;31.20;99.90;;;;;;5034210;28;19905;-85
2022/04/20 15:33:47;;;;;;;;;;;31.30;99.90;;;;;;5027272;28;19935;-84
2022/04/20 15:39:09;;;;;;;;;;;32.40;99.90;;;;;;5034134;28;20057;-86
2022/04/20 15:44:30;;;;;;;;;;;32.40;99.90;;;;;;5024565;28;19928;-86
2022/04/20 15:46:59;;;;;;;;;;;32.20;99.90;;;;;;5018676;28;19905;-85
2022/04/20 15:49:53;;;;;;;;;;;32.60;99.90;;;;;;5028508;28;19909;-85
2022/04/20 15:52:19;;;;;;;;;;;33.20;99.90;;;;;;5028365;28;19913;-77
2022/04/20 15:54:45;;;;;;;;;;;33.20;99.90;;;;;;5025932;28;19913;-78
2022/04/20 16:00:14;;;;;;;;;;;33.10;99.90;;;;;;5031446;28;20376;-78
2022/04/20 16:02:40;;;;;;;;;;;32.90;99.90;;;;;;5023382;28;19924;-78
2022/04/20 16:05:06;;;;;;;;;;;32.70;99.90;;;;;;5030770;28;19909;-73
2022/04/20 16:07:33;;;;;;;;;;;;;;;;;;5019948;28;20007;-73
2022/04/20 16:09:59;;;;;;;;;;;;;;;;;;5027052;28;20311;-73
2022/04/20 16:12:24;;;;;;;;;;;31.30;99.90;;;;;;5028169;28;20364;-72
2022/04/20 16:14:50;;;;;;;;;;;31.10;99.90;;;;;;5014425;28;19913;-72
2022/04/20 16:17:16;;;;;;;;;;;;;;;;;;5013179;28;19909;-72
2022/04/20 16:19:42;;;;;;;;;;;;;;;;;;5014530;28;20288;-77
2022/04/20 16:22:08;;;;;;;;;;;;;;;;;;5014261;28;19909;-78
2022/04/20 16:24:34;;;;;;;;;;;32.80;99.90;;;;;;5019796;28;19905;-79
2022/04/20 16:27:00;;;;;;;;;;;32.90;99.90;;;;;;5030420;28;19912;-78
2022/04/20 16:29:25;;;;;;;;;;;33.40;99.90;;;;;;5023442;28;20256;-78
2022/04/20 16:31:54;;;;;;;;;;;33.40;99.90;;;;;;5029032;28;20006;-78
2022/04/20 16:34:20;;;;;;;;;;;;;;;;;;5018337;28;19905;-78
2022/04/20 16:36:48;;;;;;;;;;;33.50;99.90;;;;;;5018109;28;19905;-71
2022/04/20 16:39:14;;;;;;;;;;;;;;;;;;5020790;28;19916;-71
2022/04/20 16:41:40;;;;;;;;;;;33.00;99.90;;;;;;5040101;28;19915;-71
2022/04/20 16:44:06;;;;;;;;;;;32.50;99.90;;;;;;5030694;28;20011;-72
2022/04/20 16:46:32;;;;;;;;;;;32.90;99.90;;;;;;5019753;28;19917;-72
2022/04/20 16:48:59;;;;;;;;;;;;;;;;;;5031163;28;19909;-74
2022/04/20 16:51:25;;;;;;;;;;;32.70;99.90;;;;;;5029778;28;19967;-76